KEVV/EVV METAR and TAF weather

Enter ICAO airport designator
Station Type Date Time Source
KEVV METAR 2019/02/17 07:54 UTC NOAA

KEVV 170754Z AUTO 07006KT 10SM OVC080 01/M03 A2983 RMK AO2 RAB18E27 SLP105 P0000 T00111033


Station Type Date Time Source
KEVV Decoded METAR 2019/02/17 07:54 UTC NOAA

EVANSVILLE REGIONAL, IN, United States (KEVV) 38-02N 087-32W 117M
Feb 17, 2019 - 02:54 AM EST / 2019.02.17 0754 UTC
Wind: from the ENE (070 degrees) at 7 MPH (6 KT):0
Visibility: 10 mile(s):0
Sky conditions: overcast
Precipitation last hour: A trace
Temperature: 34.0 F (1.1 C)
Windchill: 28 F (-2 C):1
Dew Point: 26.1 F (-3.3 C)
Relative Humidity: 72%
Pressure (altimeter): 29.83 in. Hg (1010 hPa)
ob: KEVV 170754Z AUTO 07006KT 10SM OVC080 01/M03 A2983 RMK AO2 RAB18E27 SLP105 P0000 T00111033
cycle: 8

Station Type Date Time Source
KEVV TAF 2019/02/17 06:36 UTC NOAA

TAF
AMD KEVV 170535Z 1706/1806 08008KT P6SM OVC130
FM171000 10005KT 6SM -DZ OVC020
FM171500 VRB04KT P6SM OVC009
FM172000 28004KT P6SM OVC015
FM180300 29008KT P6SM OVC040


Example: see airport list